메인 페이지
METAR-TAF:

METAR-TAF

공항 :

트빌리시 국제공항

트빌리시, 조지아

위도: 41-40-09N, 경도: 044-57-17E, 고도: 495m

현재 날씨관측

예보는 37분 전, 15:00시(UTC)에 발표되었습니다.
동남동5kt
온도 16°C
습도 72%
기압 1024 hPa
시정 10km 이상
1500m 미만 상공 구름 및 적란운 없음

METAR: UGTB 221500Z 11005KT CAVOK 16/11 Q1024 NOSIG

시각: 19:37 (15:37 UTC)

예보

예보는 4 시간 37분 전, 11:00시(UTC)에 발표되었습니다.
예보 대상 시간: 22일 12시부터 23일 12시까지 (UTC)
여러 방향의 바람 2kt
시정 10km 이상
고도 3000ft 상공 구름 보통
전환 중
22일 18시부터 22일 20시까지 (UTC)
고도 1400ft 상공 구름 보통
고도 3000ft 상공 구름 많음
일시적
22일 22시부터 23일 06시까지 (UTC)
시정: 2000m
고도 400ft 상공 구름 많음
고도 1000ft 상공 흐림
박무
전환 중
23일 06시부터 23일 09시까지 (UTC)
시정 10km 이상
1500m 미만 상공 구름 및 적란운 없음

TAF: UGTB 221100Z 2212/2312 VRB02KT 9999 SCT030 TX20/2312Z TN12/2303Z BECMG 2218/2220 SCT014 BKN030 TEMPO 2222/2306 2000 BR BKN004 OVC010 BECMG 2306/2309 CAVOK

4,000개 이상의 공항 관측 자료 및 예보 (METAR 및 TAF 보고).

지도상에서 검색 가능한 기상관측소가 노란 점과 빨간 점으로 표시되어 있습니다.

기상관측소 명을 보려면 표시 위로 마우스를 이동하세요.

날씨 관측과 예보를 보려면 클릭하세요.

지도 변경 : 확대하려면 엑스 표시가 있는 녹색 버튼, 축소하려면 빼기 표시가 있는 녹색 버튼, 다음 페이지의 지도를 보려면 녹색 화살표를 클릭하세요.


METAR-TAF: